createdAt,value
2017-11-08T00:01:06.494Z,5.87
2017-11-08T00:03:34.463Z,18.10
2017-11-08T00:06:02.436Z,5.03
2017-11-08T00:08:30.429Z,4.93
2017-11-08T00:10:58.366Z,4.03
2017-11-08T00:13:26.343Z,5.63
2017-11-08T00:15:54.316Z,5.57
2017-11-08T00:18:22.355Z,5.53
2017-11-08T00:20:50.302Z,5.73
2017-11-08T00:23:20.162Z,5.37
2017-11-08T00:25:48.694Z,7.37
2017-11-08T00:28:16.673Z,6.80
2017-11-08T00:30:44.605Z,6.63
2017-11-08T00:33:12.592Z,6.50
2017-11-08T00:35:40.569Z,6.83
2017-11-08T00:38:08.512Z,5.57
2017-11-08T00:40:37.113Z,6.87
2017-11-08T00:43:05.042Z,7.00
2017-11-08T00:45:32.979Z,6.90
2017-11-08T00:48:00.934Z,7.73
2017-11-08T00:50:28.893Z,6.63
2017-11-08T00:52:56.851Z,6.70
2017-11-08T00:55:24.823Z,7.87
2017-11-08T00:57:52.784Z,7.80
2017-11-08T01:00:20.727Z,7.10
2017-11-08T01:02:48.666Z,7.20
2017-11-08T01:05:16.672Z,8.07
2017-11-08T01:07:44.611Z,6.93
2017-11-08T01:10:12.574Z,6.87
2017-11-08T01:12:40.511Z,7.83
2017-11-08T01:15:08.442Z,7.87
2017-11-08T01:17:36.459Z,8.63
2017-11-08T01:20:04.415Z,8.33
2017-11-08T01:22:32.349Z,8.40
2017-11-08T01:25:00.296Z,11.17
2017-11-08T01:27:28.302Z,8.57
2017-11-08T01:29:57.141Z,9.57
2017-11-08T01:32:25.105Z,8.40
2017-11-08T01:34:53.015Z,8.50
2017-11-08T01:40:18.899Z,10.33
2017-11-08T01:42:46.880Z,8.10
2017-11-08T01:45:14.905Z,9.33
2017-11-08T01:47:42.871Z,8.20
2017-11-08T01:50:10.813Z,9.30
2017-11-08T01:52:38.776Z,8.90
2017-11-08T01:55:06.706Z,10.33
2017-11-08T01:57:34.643Z,9.63
2017-11-08T02:00:02.604Z,9.90
2017-11-08T02:02:30.576Z,10.00
2017-11-08T02:04:58.562Z,11.30
2017-11-08T02:07:26.517Z,10.17
2017-11-08T02:09:54.439Z,10.03
2017-11-08T02:12:22.448Z,9.80
2017-11-08T02:14:50.387Z,10.20
2017-11-08T02:17:18.328Z,11.23
2017-11-08T02:19:46.257Z,10.57
2017-11-08T02:22:14.228Z,9.57
2017-11-08T02:24:42.194Z,11.33
2017-11-08T02:27:10.182Z,12.20
2017-11-08T02:29:38.353Z,11.20
2017-11-08T02:32:06.268Z,12.40
2017-11-08T02:34:34.236Z,11.90
2017-11-08T02:37:02.253Z,12.93
2017-11-08T02:39:30.193Z,12.00
2017-11-08T02:41:58.143Z,11.60
2017-11-08T02:44:26.107Z,11.47
2017-11-08T02:46:58.886Z,14.23
2017-11-08T02:49:26.848Z,12.30
2017-11-08T02:51:54.774Z,12.57
2017-11-08T02:56:57.724Z,12.10
2017-11-08T02:59:25.646Z,13.90
2017-11-08T03:01:53.589Z,12.23
2017-11-08T03:04:21.534Z,13.63
2017-11-08T03:06:49.502Z,13.83
2017-11-08T03:09:17.458Z,12.80
2017-11-08T03:11:45.413Z,13.60
2017-11-08T03:14:13.358Z,15.27
2017-11-08T03:16:41.388Z,14.47
2017-11-08T03:19:09.346Z,13.90
2017-11-08T03:21:37.322Z,13.90
2017-11-08T03:24:05.334Z,16.20
2017-11-08T03:26:33.307Z,14.53
2017-11-08T03:29:01.246Z,15.07
2017-11-08T03:31:29.193Z,15.37
2017-11-08T03:33:57.138Z,15.87
2017-11-08T03:36:25.086Z,15.90
2017-11-08T03:38:53.094Z,15.90
2017-11-08T03:41:21.048Z,18.17
2017-11-08T03:43:48.983Z,18.50
2017-11-08T03:46:16.930Z,18.20
2017-11-08T03:48:44.897Z,16.43
2017-11-08T03:51:12.836Z,19.10
2017-11-08T03:53:40.767Z,16.03
2017-11-08T03:56:08.703Z,18.70
2017-11-08T03:58:36.651Z,18.57
2017-11-08T04:01:04.676Z,18.43
2017-11-08T04:03:32.609Z,18.33
2017-11-08T04:06:00.560Z,20.10
2017-11-08T04:08:28.494Z,19.47
2017-11-08T04:10:56.454Z,19.83
2017-11-08T04:13:24.443Z,21.00
2017-11-08T04:15:52.404Z,21.90
2017-11-08T04:18:20.327Z,24.80
2017-11-08T04:20:48.273Z,24.07
2017-11-08T04:23:16.320Z,24.07
2017-11-08T04:25:44.278Z,24.50
2017-11-08T04:28:12.246Z,23.50
2017-11-08T04:30:40.196Z,23.03
2017-11-08T04:33:08.146Z,24.93
2017-11-08T04:35:36.132Z,24.83
2017-11-08T04:38:04.057Z,24.43
2017-11-08T04:40:31.998Z,24.23
2017-11-08T04:42:59.967Z,25.00
2017-11-08T04:45:27.929Z,32.43
2017-11-08T04:47:55.877Z,24.87
2017-11-08T04:50:23.814Z,25.33
2017-11-08T04:52:51.757Z,25.20
2017-11-08T04:55:19.805Z,25.30
2017-11-08T04:57:47.788Z,26.70
2017-11-08T05:00:15.827Z,26.33
2017-11-08T05:02:43.771Z,24.63
2017-11-08T05:05:11.709Z,24.40
2017-11-08T05:07:39.660Z,27.30
2017-11-08T05:10:07.613Z,26.33
2017-11-08T05:12:35.626Z,24.63
2017-11-08T05:15:03.617Z,28.50
2017-11-08T05:17:31.579Z,26.53
2017-11-08T05:19:59.514Z,26.77
2017-11-08T05:22:27.475Z,29.17
2017-11-08T05:24:55.400Z,28.77
2017-11-08T05:27:23.360Z,29.67
2017-11-08T05:29:51.297Z,30.00
2017-11-08T05:32:19.943Z,30.23
2017-11-08T05:34:47.907Z,29.30
2017-11-08T05:37:15.874Z,32.80
2017-11-08T05:39:43.795Z,30.33
2017-11-08T05:42:12.087Z,31.57
2017-11-08T05:44:40.018Z,31.40
2017-11-08T05:47:07.986Z,33.50
2017-11-08T05:49:36.116Z,31.83
2017-11-08T05:52:04.082Z,31.90
2017-11-08T05:54:32.040Z,32.17
2017-11-08T05:57:00.032Z,33.23
2017-11-08T05:59:28.083Z,32.00
2017-11-08T06:01:56.005Z,28.90
2017-11-08T06:04:23.952Z,29.93
2017-11-08T06:06:52.011Z,29.57
2017-11-08T06:09:19.930Z,28.27
2017-11-08T06:11:47.878Z,28.80
2017-11-08T06:14:16.124Z,28.97
2017-11-08T06:16:44.152Z,28.83
2017-11-08T06:19:13.092Z,31.10
2017-11-08T06:21:41.033Z,30.03
2017-11-08T06:24:09.025Z,30.63
2017-11-08T06:26:36.956Z,29.60
2017-11-08T06:29:04.950Z,29.57
2017-11-08T06:31:32.907Z,28.63
2017-11-08T06:34:00.852Z,30.87
2017-11-08T06:36:28.805Z,29.40
2017-11-08T06:38:56.774Z,32.13
2017-11-08T06:41:24.745Z,31.10
2017-11-08T06:43:52.733Z,31.00
2017-11-08T06:46:20.677Z,30.63
2017-11-08T06:48:48.605Z,29.73
2017-11-08T06:51:16.550Z,30.63
2017-11-08T06:53:44.482Z,28.70
2017-11-08T06:56:12.430Z,30.23
2017-11-08T06:58:40.520Z,30.97
2017-11-08T07:01:08.490Z,32.20
2017-11-08T07:03:36.471Z,31.47
2017-11-08T07:06:04.434Z,34.03
2017-11-08T07:08:32.932Z,34.53
2017-11-08T07:11:00.879Z,34.00
2017-11-08T07:13:28.826Z,33.40
2017-11-08T07:15:56.837Z,33.93
2017-11-08T07:18:24.821Z,35.23
2017-11-08T07:20:52.755Z,33.53
2017-11-08T07:23:20.698Z,35.87
2017-11-08T07:25:48.622Z,38.87
2017-11-08T07:28:16.597Z,41.57
2017-11-08T07:30:44.667Z,39.10
2017-11-08T07:33:12.636Z,36.30
2017-11-08T07:35:40.607Z,38.27
2017-11-08T07:38:08.555Z,40.77
2017-11-08T07:40:36.486Z,38.23
2017-11-08T07:43:04.419Z,39.00
2017-11-08T07:45:32.349Z,38.03
2017-11-08T07:48:00.444Z,36.63
2017-11-08T07:50:28.398Z,39.50
2017-11-08T07:52:56.314Z,38.53
2017-11-08T07:55:30.155Z,40.20
2017-11-08T07:57:58.085Z,38.70
2017-11-08T08:00:26.055Z,38.00
2017-11-08T08:02:54.004Z,39.47
2017-11-08T08:05:22.058Z,38.50
2017-11-08T08:07:50.106Z,38.77
2017-11-08T08:10:17.994Z,39.60
2017-11-08T08:12:45.947Z,39.70
2017-11-08T08:15:14.009Z,39.60
2017-11-08T08:17:41.959Z,37.63
2017-11-08T08:20:09.918Z,41.80
2017-11-08T08:22:38.162Z,42.90
2017-11-08T08:25:06.148Z,43.77
2017-11-08T08:27:34.117Z,41.40
2017-11-08T08:30:02.993Z,39.70
2017-11-08T08:32:31.036Z,39.90
2017-11-08T08:34:59.104Z,35.00
2017-11-08T08:37:27.046Z,38.83
2017-11-08T08:39:54.971Z,39.60
2017-11-08T08:42:23.451Z,40.33
2017-11-08T08:44:51.385Z,43.40
2017-11-08T08:47:19.309Z,38.80
2017-11-08T08:49:47.249Z,40.03
2017-11-08T08:52:16.194Z,38.03
2017-11-08T08:54:44.134Z,39.30
2017-11-08T08:57:12.086Z,38.70
2017-11-08T08:59:40.674Z,39.20
2017-11-08T09:02:12.653Z,38.40
2017-11-08T09:04:40.604Z,38.83
2017-11-08T09:07:08.575Z,42.27
2017-11-08T09:09:36.593Z,37.87
2017-11-08T09:12:04.564Z,41.70
2017-11-08T09:14:32.536Z,38.67
2017-11-08T09:17:00.500Z,39.83
2017-11-08T09:19:28.469Z,41.20
2017-11-08T09:21:56.435Z,41.03
2017-11-08T09:24:24.432Z,41.30
2017-11-08T09:26:58.064Z,38.20
2017-11-08T09:29:28.900Z,37.60
2017-11-08T09:31:56.903Z,38.13
2017-11-08T09:34:24.840Z,40.07
2017-11-08T09:36:52.809Z,38.60
2017-11-08T09:39:20.795Z,39.73
2017-11-08T09:41:50.214Z,38.00
2017-11-08T09:44:18.874Z,38.17
2017-11-08T09:46:46.986Z,38.23
2017-11-08T09:49:14.916Z,38.60
2017-11-08T09:51:43.353Z,39.67
2017-11-08T09:54:11.562Z,37.00
2017-11-08T09:56:40.775Z,37.63
2017-11-08T09:59:11.333Z,38.97
2017-11-08T10:01:42.304Z,37.83
2017-11-08T10:04:10.344Z,38.47
2017-11-08T10:06:40.124Z,38.50
2017-11-08T10:09:08.082Z,37.40
2017-11-08T10:11:39.130Z,37.37
2017-11-08T10:14:07.271Z,36.13
2017-11-08T10:16:35.320Z,36.33
2017-11-08T10:19:04.503Z,36.50
2017-11-08T10:21:33.775Z,37.93
2017-11-08T10:24:01.949Z,37.13
2017-11-08T10:26:29.961Z,36.10
2017-11-08T10:28:57.921Z,39.07
2017-11-08T10:31:25.875Z,41.33
2017-11-08T10:33:53.973Z,38.83
2017-11-08T10:36:21.965Z,39.60
2017-11-08T10:38:49.982Z,39.57
2017-11-08T10:41:17.934Z,40.70
2017-11-08T10:43:45.876Z,40.10
2017-11-08T10:46:15.256Z,38.23
2017-11-08T10:48:43.251Z,39.53
2017-11-08T10:51:13.017Z,38.90
2017-11-08T10:53:40.963Z,39.10
2017-11-08T10:56:09.868Z,39.70
2017-11-08T10:58:37.930Z,42.50
2017-11-08T11:01:06.003Z,39.10
2017-11-08T11:03:33.993Z,40.30
2017-11-08T11:06:02.002Z,42.27
2017-11-08T11:08:30.906Z,42.40
2017-11-08T11:10:58.898Z,39.93
2017-11-08T11:13:27.212Z,39.23
2017-11-08T11:16:06.623Z,37.90
2017-11-08T11:18:42.129Z,40.90
2017-11-08T11:21:10.430Z,39.60
2017-11-08T11:23:49.151Z,42.70
2017-11-08T11:26:17.140Z,42.10
2017-11-08T11:28:45.109Z,40.60
2017-11-08T11:31:13.313Z,41.50
2017-11-08T11:33:41.837Z,43.63
2017-11-08T11:36:09.943Z,40.60
2017-11-08T11:38:38.957Z,40.23
2017-11-08T11:41:07.604Z,41.37
2017-11-08T11:43:35.604Z,41.60
2017-11-08T11:46:03.626Z,39.73
2017-11-08T11:48:31.752Z,41.17
2017-11-08T11:51:05.399Z,38.70
2017-11-08T11:53:33.366Z,38.70
2017-11-08T11:56:01.363Z,38.27
2017-11-08T11:58:29.333Z,38.80
2017-11-08T12:00:57.715Z,37.47
2017-11-08T12:03:26.094Z,38.60
2017-11-08T12:05:54.056Z,38.30
2017-11-08T12:08:22.078Z,36.87
2017-11-08T12:10:50.088Z,36.40
2017-11-08T12:13:18.068Z,37.20
2017-11-08T12:15:46.062Z,35.40
2017-11-08T12:18:14.116Z,35.93
2017-11-08T12:20:42.199Z,36.40
2017-11-08T12:23:10.297Z,39.90
2017-11-08T12:25:38.479Z,38.20
2017-11-08T12:28:06.541Z,39.20
2017-11-08T12:30:34.621Z,36.67
2017-11-08T12:33:02.650Z,35.57
2017-11-08T12:35:30.796Z,35.80
2017-11-08T12:37:58.788Z,36.43
2017-11-08T12:40:27.002Z,35.87
2017-11-08T12:42:54.946Z,38.10
2017-11-08T12:45:22.988Z,35.27
2017-11-08T12:47:51.030Z,36.43
2017-11-08T12:50:19.104Z,36.70
2017-11-08T12:52:47.100Z,37.40
2017-11-08T12:55:15.099Z,40.77
2017-11-08T12:57:45.945Z,37.57
2017-11-08T13:00:13.929Z,35.53
2017-11-08T13:02:42.136Z,37.67
2017-11-08T13:05:10.206Z,33.93
2017-11-08T13:07:38.453Z,36.53
2017-11-08T13:10:06.437Z,37.37
2017-11-08T13:12:34.444Z,36.97
2017-11-08T13:15:02.980Z,34.00
2017-11-08T13:17:31.536Z,34.80
2017-11-08T13:19:59.547Z,33.53
2017-11-08T13:22:27.509Z,33.67
2017-11-08T13:24:55.500Z,34.00
2017-11-08T13:27:23.468Z,34.20
2017-11-08T13:29:52.356Z,35.20
2017-11-08T13:32:20.417Z,34.90
2017-11-08T13:34:48.441Z,34.63
2017-11-08T13:37:16.419Z,36.10
2017-11-08T13:39:49.941Z,57.60
2017-11-08T13:42:19.866Z,102.60
2017-11-08T13:44:48.571Z,38.67
2017-11-08T13:47:19.189Z,36.90
2017-11-08T13:49:47.181Z,36.00
2017-11-08T13:54:49.524Z,37.17
2017-11-08T13:57:17.468Z,35.37
2017-11-08T13:59:45.450Z,35.37
2017-11-08T14:02:14.446Z,37.40
2017-11-08T14:04:42.489Z,33.60
2017-11-08T14:07:10.527Z,37.00
2017-11-08T14:09:38.549Z,35.20
2017-11-08T14:12:07.704Z,34.50
2017-11-08T14:14:36.694Z,35.47
2017-11-08T14:17:04.696Z,34.07
2017-11-08T14:19:32.641Z,37.00
2017-11-08T14:22:00.802Z,33.83
2017-11-08T14:24:28.868Z,36.60
2017-11-08T14:26:57.207Z,44.40
2017-11-08T14:29:25.771Z,39.30
2017-11-08T14:31:53.717Z,38.33
2017-11-08T14:34:21.807Z,55.80
2017-11-08T14:36:50.084Z,49.30
2017-11-08T14:39:18.272Z,47.67
2017-11-08T14:41:51.004Z,47.00
2017-11-08T14:44:19.318Z,39.30
2017-11-08T14:46:47.433Z,37.67
2017-11-08T14:49:15.586Z,38.97
2017-11-08T14:51:43.613Z,38.93
2017-11-08T14:54:14.370Z,40.07
2017-11-08T14:56:42.368Z,38.47
2017-11-08T14:59:10.377Z,42.63
2017-11-08T15:01:38.360Z,39.13
2017-11-08T15:04:06.321Z,39.50
2017-11-08T15:06:34.357Z,64.83
2017-11-08T15:09:02.383Z,56.30
2017-11-08T15:11:36.268Z,44.17
2017-11-08T15:14:05.133Z,89.33
2017-11-08T15:16:33.091Z,71.53
2017-11-08T15:19:01.105Z,68.60
2017-11-08T15:21:29.202Z,133.53
2017-11-08T15:23:57.234Z,59.10
2017-11-08T15:26:26.383Z,45.00
2017-11-08T15:28:54.576Z,39.30
2017-11-08T15:31:23.164Z,38.40
2017-11-08T15:33:51.214Z,37.20
2017-11-08T15:36:19.474Z,38.30
2017-11-08T15:38:47.858Z,35.00
2017-11-08T15:41:22.461Z,36.80
2017-11-08T15:43:50.681Z,37.33
2017-11-08T15:46:18.756Z,35.93
2017-11-08T15:48:46.740Z,38.40
2017-11-08T15:51:14.697Z,37.50
2017-11-08T15:53:42.718Z,59.93
2017-11-08T15:56:10.689Z,91.57
2017-11-08T15:58:38.701Z,50.93
2017-11-08T16:01:06.696Z,65.70
2017-11-08T16:03:34.643Z,50.67
2017-11-08T16:06:02.636Z,76.37
2017-11-08T16:08:32.371Z,86.47
2017-11-08T16:11:00.365Z,69.63
2017-11-08T16:13:28.364Z,110.90
2017-11-08T16:15:56.305Z,70.23
2017-11-08T16:18:24.273Z,40.40
2017-11-08T16:20:52.218Z,37.53
2017-11-08T16:23:20.846Z,40.37
2017-11-08T16:25:48.769Z,38.70
2017-11-08T16:28:17.536Z,36.40
2017-11-08T16:30:45.491Z,37.20
2017-11-08T16:33:13.438Z,38.60
2017-11-08T16:38:15.699Z,36.87
2017-11-08T16:40:43.824Z,38.00
2017-11-08T16:43:11.804Z,41.47
2017-11-08T16:45:39.799Z,36.87
2017-11-08T16:48:07.762Z,39.13
2017-11-08T16:50:36.163Z,42.03
2017-11-08T16:53:04.128Z,42.27
2017-11-08T16:55:32.078Z,41.07
2017-11-08T16:58:00.032Z,38.10
2017-11-08T17:00:28.049Z,39.63
2017-11-08T17:02:56.022Z,39.10
2017-11-08T17:05:24.016Z,39.57
2017-11-08T17:07:51.960Z,37.27
2017-11-08T17:10:19.917Z,40.37
2017-11-08T17:12:47.969Z,38.57
2017-11-08T17:15:15.940Z,36.17
2017-11-08T17:17:43.983Z,39.60
2017-11-08T17:20:12.551Z,39.07
2017-11-08T17:22:40.647Z,40.00
2017-11-08T17:25:08.658Z,41.30
2017-11-08T17:27:36.714Z,40.30
2017-11-08T17:30:05.444Z,40.53
2017-11-08T17:32:34.033Z,39.47
2017-11-08T17:35:01.964Z,38.53
2017-11-08T17:37:30.038Z,37.93
2017-11-08T17:39:58.136Z,40.47
2017-11-08T17:42:26.078Z,38.30
2017-11-08T17:44:53.999Z,57.10
2017-11-08T17:47:21.955Z,151.77
2017-11-08T17:49:49.949Z,75.63
2017-11-08T17:52:18.182Z,108.00
2017-11-08T17:54:46.154Z,88.40
2017-11-08T17:57:14.103Z,94.70
2017-11-08T17:59:42.166Z,69.90
2017-11-08T18:02:10.193Z,68.10
2017-11-08T18:04:38.288Z,89.07
2017-11-08T18:07:06.302Z,47.90
2017-11-08T18:09:34.239Z,41.40
2017-11-08T18:12:02.205Z,45.23
2017-11-08T18:14:30.128Z,45.63
2017-11-08T18:16:58.122Z,39.23
2017-11-08T18:19:26.078Z,41.87
2017-11-08T18:21:54.049Z,39.07
2017-11-08T18:24:22.107Z,38.17
2017-11-08T18:26:50.851Z,38.43
2017-11-08T18:29:18.808Z,40.10
2017-11-08T18:31:47.397Z,37.30
2017-11-08T18:34:15.324Z,41.10
2017-11-08T18:36:43.340Z,36.97
2017-11-08T18:39:11.316Z,37.17
2017-11-08T18:41:39.263Z,36.57
2017-11-08T18:44:07.565Z,39.57
2017-11-08T18:46:35.553Z,37.50
2017-11-08T18:49:03.597Z,38.37
2017-11-08T18:51:31.592Z,39.47
2017-11-08T18:54:00.425Z,37.87
2017-11-08T18:56:28.424Z,36.60
2017-11-08T18:58:56.397Z,34.20
2017-11-08T19:01:25.158Z,37.23
2017-11-08T19:03:53.304Z,36.23
2017-11-08T19:06:21.361Z,35.17
2017-11-08T19:08:49.721Z,36.30
2017-11-08T19:11:17.713Z,36.20
2017-11-08T19:13:45.642Z,37.53
2017-11-08T19:16:13.615Z,35.57
2017-11-08T19:18:41.597Z,35.30
2017-11-08T19:21:09.603Z,33.27
2017-11-08T19:23:37.577Z,35.30
2017-11-08T19:26:05.595Z,35.00
2017-11-08T19:28:33.553Z,38.20
2017-11-08T19:31:02.024Z,35.90
2017-11-08T19:33:30.379Z,33.13
2017-11-08T19:35:58.722Z,34.67
2017-11-08T19:38:26.652Z,35.20
2017-11-08T19:40:55.728Z,34.80
2017-11-08T19:43:23.725Z,34.30
2017-11-08T19:45:51.802Z,36.63
2017-11-08T19:48:20.029Z,36.93
2017-11-08T19:50:48.010Z,35.73
2017-11-08T19:53:16.849Z,34.80
2017-11-08T19:55:44.834Z,45.40
2017-11-08T19:58:12.873Z,55.03
2017-11-08T20:00:40.843Z,71.07
2017-11-08T20:03:08.802Z,64.37
2017-11-08T20:05:36.776Z,67.00
2017-11-08T20:08:04.855Z,70.93
2017-11-08T20:10:33.045Z,82.43
2017-11-08T20:13:01.831Z,139.13
2017-11-08T20:15:29.790Z,74.30
2017-11-08T20:17:57.770Z,58.40
2017-11-08T20:20:25.797Z,63.30
2017-11-08T20:22:53.849Z,57.77
2017-11-08T20:25:21.834Z,46.10
2017-11-08T20:27:49.831Z,44.07
2017-11-08T20:30:17.839Z,41.83
2017-11-08T20:32:45.810Z,51.20
2017-11-08T20:35:13.757Z,48.60
2017-11-08T20:37:43.467Z,42.40
2017-11-08T20:40:11.407Z,38.40
2017-11-08T20:42:39.404Z,41.40
2017-11-08T20:45:07.625Z,40.87
2017-11-08T20:47:35.605Z,40.67
2017-11-08T20:50:03.591Z,40.43
2017-11-08T20:52:31.591Z,35.53
2017-11-08T20:54:59.839Z,36.07
2017-11-08T20:57:27.950Z,51.23
2017-11-08T20:59:56.022Z,48.77
2017-11-08T21:02:24.053Z,38.73
2017-11-08T21:04:52.138Z,34.43
2017-11-08T21:07:20.141Z,35.93
2017-11-08T21:09:48.238Z,35.60
2017-11-08T21:12:16.199Z,36.27
2017-11-08T21:14:44.218Z,36.07
2017-11-08T21:17:12.280Z,34.40
2017-11-08T21:19:40.833Z,33.30
2017-11-08T21:22:08.757Z,31.97
2017-11-08T21:24:36.873Z,35.83
2017-11-08T21:27:04.897Z,34.10
2017-11-08T21:29:32.844Z,33.30
2017-11-08T21:32:00.836Z,32.90
2017-11-08T21:34:28.867Z,68.67
2017-11-08T21:36:56.844Z,64.17
2017-11-08T21:39:24.839Z,109.10
2017-11-08T21:41:52.830Z,86.80
2017-11-08T21:44:21.523Z,124.87
2017-11-08T21:46:49.490Z,66.47
2017-11-08T21:49:17.459Z,69.67
2017-11-08T21:51:45.389Z,59.70
2017-11-08T21:54:13.967Z,54.93
2017-11-08T21:56:41.942Z,41.77
2017-11-08T21:59:09.947Z,39.20
2017-11-08T22:01:37.930Z,39.30
2017-11-08T22:04:05.876Z,36.37
2017-11-08T22:06:33.853Z,33.23
2017-11-08T22:09:01.906Z,32.50
2017-11-08T22:11:29.885Z,35.73
2017-11-08T22:13:57.900Z,34.27
2017-11-08T22:16:25.869Z,34.17
2017-11-08T22:18:53.816Z,34.53
2017-11-08T22:21:21.778Z,35.73
2017-11-08T22:23:49.866Z,36.30
2017-11-08T22:26:17.925Z,33.20
2017-11-08T22:28:45.876Z,35.67
2017-11-08T22:31:13.830Z,34.97
2017-11-08T22:33:42.655Z,34.50
2017-11-08T22:36:10.671Z,33.27
2017-11-08T22:38:39.305Z,33.83
2017-11-08T22:41:07.287Z,35.87
2017-11-08T22:43:36.130Z,33.40
2017-11-08T22:46:04.133Z,34.70
2017-11-08T22:48:32.051Z,34.90
2017-11-08T22:51:00.745Z,37.23
2017-11-08T22:53:28.876Z,35.40
2017-11-08T22:55:56.957Z,34.03
2017-11-08T22:58:24.901Z,36.50
2017-11-08T23:00:52.932Z,34.73
2017-11-08T23:03:21.285Z,34.63
2017-11-08T23:05:49.297Z,35.20
2017-11-08T23:08:17.260Z,35.10
2017-11-08T23:10:45.241Z,34.70
2017-11-08T23:13:13.291Z,34.63
2017-11-08T23:15:41.915Z,34.70
2017-11-08T23:18:09.849Z,38.30
2017-11-08T23:20:37.830Z,34.30
2017-11-08T23:23:05.775Z,35.13
2017-11-08T23:25:33.713Z,35.37
2017-11-08T23:28:01.790Z,35.30
2017-11-08T23:30:29.740Z,35.87
2017-11-08T23:32:57.677Z,33.57
2017-11-08T23:35:25.673Z,34.97
2017-11-08T23:37:53.591Z,37.33
2017-11-08T23:40:21.558Z,34.07
2017-11-08T23:42:49.492Z,33.40
2017-11-08T23:45:17.424Z,34.40
2017-11-08T23:47:45.375Z,36.33
2017-11-08T23:50:13.315Z,33.50
2017-11-08T23:52:41.354Z,34.83
2017-11-08T23:55:09.277Z,35.27
2017-11-08T23:57:37.219Z,37.10
